Eships Agamid — ZDHS9 — position and weather

sailwx.info

Track history (hours):
 
Tides and Currents Weather Stations Pressure Air Temp Water Temp Dewpoint Dewpoint Depression Visibility Wind Speed Wind Dir Waves Ship Positions

Eships Agamid

Last reported at 2015-Mar-05 09:20 UTC. Time now 2015-Mar-05 14:36 UTC.
Position N 46°30' W 002°19'.

Length 128 m; draft 6 m.

Type: Tanker. MMSI: 236355000.

Date/timePositionNaut miles runAvg speedWind from/ knotsBaromVisibWave heightAir tempDewpointWater temp
2015-Mar-05 09:20N 46°30' W 002°19'1113.6
2015-Mar-05 08:33N 46°23' W 002°08'1413.7
2015-Mar-05 07:32N 46°13' W 001°53'1313.2
2015-Mar-05 06:33N 46°08' W 001°37'1511.2
2015-Mar-05 05:12N 46°09' W 001°15'24 0.8
2015-Mar-03 23:33N 46°12' W 001°49'1313.0
2015-Mar-03 22:33N 46°21' W 002°03'1312.9
2015-Mar-03 21:33N 46°29' W 002°17'  
2015-Feb-28 21:28N 46°31' W 002°21'1112.0
2015-Feb-28 20:33N 46°24' W 002°09'1312.6
2015-Feb-28 19:33N 46°16' W 001°55'1312.6
2015-Feb-28 18:33N 46°08' W 001°40'1712.1
2015-Feb-28 17:08N 46°07' W 001°15'23 0.8
2015-Feb-27 13:09N 46°12' W 001°49'912.9
2015-Feb-27 12:29N 46°18' W 001°58'1213.2
2015-Feb-27 11:33N 46°26' W 002°12'  
2015-Feb-25 01:29N 46°32' W 002°29'10 9.5
2015-Feb-25 00:26N 46°24' W 002°20'8 9.5
2015-Feb-24 23:33N 46°18' W 002°12'10 9.2
2015-Feb-24 22:29N 46°10' W 002°04'  
Track history (hours):
 
Tides and Currents Weather Stations Pressure Air Temp Water Temp Dewpoint Dewpoint Depression Visibility Wind Speed Wind Dir Waves Ship Positions

Eships Agamid

Last reported at 2015-Mar-05 09:20 UTC. Time now 2015-Mar-05 14:36 UTC.
Position N 46°30' W 002°19'.

Length 128 m; draft 6 m.

Type: Tanker. MMSI: 236355000.

Date/timePositionNaut miles runAvg speedWind from/ knotsBaromVisibWave heightAir tempDewpointWater temp
2015-Mar-05 09:20N 46°30' W 002°19'1113.6
2015-Mar-05 08:33N 46°23' W 002°08'1413.7
2015-Mar-05 07:32N 46°13' W 001°53'1313.2
2015-Mar-05 06:33N 46°08' W 001°37'1511.2
2015-Mar-05 05:12N 46°09' W 001°15'24 0.8
2015-Mar-03 23:33N 46°12' W 001°49'1313.0
2015-Mar-03 22:33N 46°21' W 002°03'1312.9
2015-Mar-03 21:33N 46°29' W 002°17'  
2015-Feb-28 21:28N 46°31' W 002°21'1112.0
2015-Feb-28 20:33N 46°24' W 002°09'1312.6
2015-Feb-28 19:33N 46°16' W 001°55'1312.6
2015-Feb-28 18:33N 46°08' W 001°40'1712.1
2015-Feb-28 17:08N 46°07' W 001°15'23 0.8
2015-Feb-27 13:09N 46°12' W 001°49'912.9
2015-Feb-27 12:29N 46°18' W 001°58'1213.2
2015-Feb-27 11:33N 46°26' W 002°12'  
2015-Feb-25 01:29N 46°32' W 002°29'10 9.5
2015-Feb-25 00:26N 46°24' W 002°20'8 9.5
2015-Feb-24 23:33N 46°18' W 002°12'10 9.2
2015-Feb-24 22:29N 46°10' W 002°04'  

Dump ship's entire track history